LFPM 041700Z AUTO 17007KT 9999 -RA BKN026 BKN033 BKN041 06/03 Q0987

Sorties Club

Notre Club organise chaque années des sorties c'est l'occasion de faire de belles navigations et de profiter d'une agréable sortie entre pilotes

Les Sorties Club de 2017

Sortie Amboise Chambord Chambord

Les Sorties Club de 2018

Prochaines destinations

Le 28 avril : Albert LFAQ visite musée aéronautique

Le 26 mai : Le Mont St Michel LFRF

Le 23 juin : Le Touquet LFAT

En juillet : Rallye Club- Verdun

Le 11 août : Dieppe LFAB



Sortie Le Touquet
Le Touquet